createdAt,value
2019-01-30T00:00:00.605Z,16.30
2019-01-30T00:02:29.351Z,16.80
2019-01-30T00:04:58.123Z,16.30
2019-01-30T00:07:26.920Z,16.13
2019-01-30T00:09:55.726Z,16.17
2019-01-30T00:12:24.524Z,24.30
2019-01-30T00:14:53.365Z,25.07
2019-01-30T00:17:22.190Z,18.97
2019-01-30T00:19:51.003Z,15.63
2019-01-30T00:22:19.807Z,28.83
2019-01-30T00:24:48.678Z,17.03
2019-01-30T00:27:17.437Z,24.67
2019-01-30T00:29:46.307Z,18.63
2019-01-30T00:32:15.256Z,26.13
2019-01-30T00:34:44.030Z,30.37
2019-01-30T00:37:12.789Z,25.73
2019-01-30T00:39:41.599Z,14.60
2019-01-30T00:42:12.370Z,21.53
2019-01-30T00:44:40.835Z,16.77
2019-01-30T00:47:15.760Z,17.40
2019-01-30T00:49:40.155Z,22.27
2019-01-30T00:52:08.944Z,15.77
2019-01-30T00:54:37.686Z,22.13
2019-01-30T00:57:06.572Z,22.67
2019-01-30T00:59:35.338Z,19.27
2019-01-30T01:02:04.310Z,16.87
2019-01-30T01:04:33.056Z,19.97
2019-01-30T01:07:01.859Z,18.37
2019-01-30T01:09:30.627Z,25.03
2019-01-30T01:11:59.423Z,19.87
2019-01-30T01:14:28.272Z,18.50
2019-01-30T01:16:56.969Z,21.00
2019-01-30T01:19:25.695Z,15.73
2019-01-30T01:21:54.507Z,13.43
2019-01-30T01:24:23.249Z,17.80
2019-01-30T01:26:52.135Z,15.63
2019-01-30T01:29:20.843Z,23.90
2019-01-30T01:31:49.556Z,21.67
2019-01-30T01:34:18.261Z,18.73
2019-01-30T01:36:47.000Z,14.63
2019-01-30T01:39:15.721Z,18.40
2019-01-30T01:41:44.444Z,19.73
2019-01-30T01:44:13.373Z,21.27
2019-01-30T01:46:42.071Z,13.13
2019-01-30T01:49:10.835Z,21.33
2019-01-30T01:51:39.581Z,17.83
2019-01-30T01:54:08.323Z,20.13
2019-01-30T01:56:37.032Z,17.20
2019-01-30T01:59:05.841Z,23.60
2019-01-30T02:01:34.560Z,12.63
2019-01-30T02:04:03.342Z,15.47
2019-01-30T02:06:32.134Z,21.33
2019-01-30T02:09:00.860Z,17.27
2019-01-30T02:11:29.641Z,12.53
2019-01-30T02:13:58.467Z,17.13
2019-01-30T02:16:27.171Z,16.80
2019-01-30T02:18:55.878Z,16.80
2019-01-30T02:21:24.639Z,13.57
2019-01-30T02:23:53.342Z,16.10
2019-01-30T02:26:22.094Z,21.73
2019-01-30T02:28:50.910Z,18.60
2019-01-30T02:31:19.735Z,15.77
2019-01-30T02:33:50.880Z,20.90
2019-01-30T02:36:19.577Z,17.10
2019-01-30T02:38:48.300Z,11.73
2019-01-30T02:41:17.036Z,19.50
2019-01-30T02:43:45.769Z,17.47
2019-01-30T02:46:14.478Z,17.13
2019-01-30T02:48:43.324Z,18.17
2019-01-30T02:51:12.019Z,13.77
2019-01-30T02:53:40.744Z,24.13
2019-01-30T02:56:09.456Z,19.10
2019-01-30T02:58:38.179Z,19.27
2019-01-30T03:01:07.088Z,28.53
2019-01-30T03:03:35.923Z,15.63
2019-01-30T03:06:04.830Z,17.70
2019-01-30T03:08:33.596Z,20.33
2019-01-30T03:11:02.325Z,13.20
2019-01-30T03:13:31.025Z,14.93
2019-01-30T03:15:59.847Z,11.07
2019-01-30T03:18:28.619Z,13.67
2019-01-30T03:20:57.350Z,15.20
2019-01-30T03:23:26.048Z,14.03
2019-01-30T03:25:54.811Z,17.77
2019-01-30T03:28:23.515Z,13.63
2019-01-30T03:30:52.243Z,19.83
2019-01-30T03:33:21.072Z,15.50
2019-01-30T03:35:49.947Z,15.50
2019-01-30T03:38:18.649Z,32.67
2019-01-30T03:40:47.384Z,16.73
2019-01-30T03:43:16.165Z,14.30
2019-01-30T03:45:44.957Z,20.07
2019-01-30T03:48:13.693Z,14.77
2019-01-30T03:50:42.435Z,24.47
2019-01-30T03:53:11.230Z,16.73
2019-01-30T03:55:40.019Z,20.53
2019-01-30T03:58:08.727Z,18.23
2019-01-30T04:00:37.525Z,15.03
2019-01-30T04:03:06.324Z,16.20
2019-01-30T04:05:35.153Z,30.60
2019-01-30T04:08:04.045Z,19.27
2019-01-30T04:10:32.745Z,19.13
2019-01-30T04:13:01.523Z,17.50
2019-01-30T04:15:30.244Z,13.10
2019-01-30T04:17:59.008Z,16.00
2019-01-30T04:20:27.730Z,13.77
2019-01-30T04:22:56.516Z,21.30
2019-01-30T04:25:25.244Z,19.10
2019-01-30T04:27:54.087Z,20.70
2019-01-30T04:30:23.549Z,12.63
2019-01-30T04:32:52.325Z,19.17
2019-01-30T04:35:21.045Z,22.20
2019-01-30T04:37:49.819Z,22.70
2019-01-30T04:40:19.054Z,20.83
2019-01-30T04:42:48.006Z,16.00
2019-01-30T04:45:18.297Z,21.40
2019-01-30T04:47:47.079Z,19.90
2019-01-30T04:50:15.866Z,19.50
2019-01-30T04:52:44.584Z,17.57
2019-01-30T04:55:13.515Z,15.53
2019-01-30T04:57:42.221Z,22.40
2019-01-30T05:00:11.826Z,13.87
2019-01-30T05:02:40.637Z,22.33
2019-01-30T05:05:09.924Z,20.03
2019-01-30T05:07:38.705Z,18.57
2019-01-30T05:10:08.136Z,21.27
2019-01-30T05:12:37.089Z,20.87
2019-01-30T05:15:06.822Z,17.57
2019-01-30T05:17:35.730Z,16.17
2019-01-30T05:20:04.985Z,17.53
2019-01-30T05:22:33.774Z,16.50
2019-01-30T05:25:02.600Z,18.00
2019-01-30T05:27:31.390Z,18.30
2019-01-30T05:30:00.260Z,19.20
2019-01-30T05:32:29.119Z,21.70
2019-01-30T05:34:57.896Z,17.23
2019-01-30T05:37:26.599Z,15.77
2019-01-30T05:39:55.323Z,15.47
2019-01-30T05:42:24.073Z,20.23
2019-01-30T05:44:52.804Z,26.10
2019-01-30T05:47:21.598Z,18.60
2019-01-30T05:49:50.333Z,19.17
2019-01-30T05:52:19.185Z,21.73
2019-01-30T05:54:47.914Z,19.77
2019-01-30T05:57:16.802Z,18.07
2019-01-30T05:59:45.644Z,16.03
2019-01-30T06:02:15.833Z,23.17
2019-01-30T06:04:44.702Z,14.73
2019-01-30T06:07:13.466Z,18.87
2019-01-30T06:09:42.187Z,18.33
2019-01-30T06:12:10.903Z,16.23
2019-01-30T06:14:39.648Z,14.20
2019-01-30T06:17:09.781Z,18.47
2019-01-30T06:19:38.610Z,17.50
2019-01-30T06:22:07.338Z,19.87
2019-01-30T06:24:36.111Z,20.90
2019-01-30T06:27:04.956Z,17.67
2019-01-30T06:29:33.667Z,14.77
2019-01-30T06:32:02.554Z,13.77
2019-01-30T06:34:31.292Z,11.37
2019-01-30T06:37:00.047Z,18.70
2019-01-30T06:39:28.869Z,8.50
2019-01-30T06:41:57.599Z,14.73
2019-01-30T06:44:26.333Z,13.60
2019-01-30T06:46:55.075Z,16.13
2019-01-30T06:49:23.803Z,11.27
2019-01-30T06:51:52.541Z,15.90
2019-01-30T06:54:21.336Z,18.23
2019-01-30T06:56:50.133Z,18.67
2019-01-30T06:59:18.949Z,17.40
2019-01-30T07:01:47.737Z,12.87
2019-01-30T07:04:16.478Z,11.73
2019-01-30T07:06:45.219Z,16.60
2019-01-30T07:09:14.038Z,12.20
2019-01-30T07:11:42.755Z,13.83
2019-01-30T07:14:11.507Z,17.67
2019-01-30T07:16:40.247Z,17.87
2019-01-30T07:19:09.048Z,15.13
2019-01-30T07:21:37.897Z,12.97
2019-01-30T07:24:06.698Z,16.87
2019-01-30T07:26:35.516Z,13.73
2019-01-30T07:29:04.300Z,9.53
2019-01-30T07:31:33.183Z,18.73
2019-01-30T07:34:02.103Z,15.37
2019-01-30T07:36:30.882Z,15.03
2019-01-30T07:38:59.818Z,13.50
2019-01-30T07:41:28.535Z,11.27
2019-01-30T07:43:57.507Z,16.97
2019-01-30T07:46:26.283Z,11.83
2019-01-30T07:48:55.087Z,8.90
2019-01-30T07:51:23.877Z,18.00
2019-01-30T07:53:54.761Z,9.27
2019-01-30T07:56:23.118Z,14.17
2019-01-30T07:58:51.924Z,12.53
2019-01-30T08:01:22.139Z,18.77
2019-01-30T08:03:51.134Z,17.87
2019-01-30T08:06:19.873Z,13.40
2019-01-30T08:08:49.748Z,16.33
2019-01-30T08:11:18.645Z,17.30
2019-01-30T08:13:47.490Z,13.07
2019-01-30T08:16:16.314Z,12.57
2019-01-30T08:18:45.051Z,16.10
2019-01-30T08:21:13.969Z,11.80
2019-01-30T08:23:42.756Z,15.27
2019-01-30T08:26:11.644Z,10.40
2019-01-30T08:28:40.921Z,12.30
2019-01-30T08:31:09.843Z,15.60
2019-01-30T08:33:38.865Z,14.63
2019-01-30T08:36:07.672Z,11.57
2019-01-30T08:38:36.414Z,13.67
2019-01-30T08:41:05.432Z,9.43
2019-01-30T08:43:34.212Z,13.03
2019-01-30T08:46:03.231Z,14.43
2019-01-30T08:48:32.208Z,7.53
2019-01-30T08:51:01.041Z,8.73
2019-01-30T08:53:29.802Z,10.23
2019-01-30T08:56:01.462Z,9.57
2019-01-30T08:58:30.329Z,11.63
2019-01-30T09:00:59.345Z,11.93
2019-01-30T09:03:28.176Z,14.77
2019-01-30T09:05:56.938Z,11.93
2019-01-30T09:08:25.874Z,13.23
2019-01-30T09:10:54.666Z,12.30
2019-01-30T09:13:25.655Z,14.47
2019-01-30T09:15:53.962Z,13.47
2019-01-30T09:18:22.941Z,12.33
2019-01-30T09:20:51.982Z,8.73
2019-01-30T09:23:20.765Z,11.77
2019-01-30T09:25:49.734Z,15.00
2019-01-30T09:28:18.573Z,11.30
2019-01-30T09:30:47.433Z,13.77
2019-01-30T09:33:25.651Z,9.77
2019-01-30T09:35:46.745Z,14.17
2019-01-30T09:38:15.580Z,8.93
2019-01-30T09:40:44.469Z,11.53
2019-01-30T09:43:13.215Z,12.10
2019-01-30T09:45:42.017Z,8.13
2019-01-30T09:48:10.812Z,10.90
2019-01-30T09:50:39.717Z,10.33
2019-01-30T09:53:08.550Z,8.43
2019-01-30T09:55:37.394Z,10.03
2019-01-30T09:58:06.162Z,9.73
2019-01-30T10:00:35.989Z,12.03
2019-01-30T10:03:04.900Z,16.40
2019-01-30T10:05:34.040Z,8.77
2019-01-30T10:08:02.832Z,10.23
2019-01-30T10:10:32.357Z,12.27
2019-01-30T10:13:01.133Z,6.13
2019-01-30T10:15:31.049Z,9.87
2019-01-30T10:18:00.069Z,13.90
2019-01-30T10:20:29.449Z,9.97
2019-01-30T10:22:58.341Z,10.40
2019-01-30T10:25:27.118Z,10.90
2019-01-30T10:27:55.950Z,9.43
2019-01-30T10:30:32.102Z,11.77
2019-01-30T10:33:00.910Z,12.30
2019-01-30T10:35:29.778Z,6.77
2019-01-30T10:37:58.560Z,10.87
2019-01-30T10:40:27.340Z,5.80
2019-01-30T10:42:57.463Z,18.33
2019-01-30T10:45:26.346Z,8.27
2019-01-30T10:47:55.097Z,6.90
2019-01-30T10:50:24.540Z,10.50
2019-01-30T10:52:53.275Z,10.33
2019-01-30T10:55:23.035Z,12.00
2019-01-30T10:57:53.008Z,9.43
2019-01-30T11:00:23.198Z,11.73
2019-01-30T11:02:52.018Z,13.27
2019-01-30T11:05:20.827Z,8.03
2019-01-30T11:07:49.673Z,8.13
2019-01-30T11:10:18.413Z,7.87
2019-01-30T11:12:47.237Z,9.80
2019-01-30T11:15:17.081Z,9.73
2019-01-30T11:17:45.960Z,9.50
2019-01-30T11:20:15.620Z,9.83
2019-01-30T11:22:44.473Z,15.07
2019-01-30T11:25:15.305Z,8.13
2019-01-30T11:27:44.172Z,9.27
2019-01-30T11:30:12.923Z,6.40
2019-01-30T11:32:41.660Z,7.07
2019-01-30T11:35:10.688Z,11.97
2019-01-30T11:37:39.440Z,6.80
2019-01-30T11:40:09.009Z,13.63
2019-01-30T11:42:37.784Z,7.30
2019-01-30T11:45:08.518Z,6.20
2019-01-30T11:47:37.341Z,8.30
2019-01-30T11:50:06.509Z,14.10
2019-01-30T11:52:36.044Z,9.10
2019-01-30T11:55:05.513Z,7.50
2019-01-30T11:57:34.331Z,7.43
2019-01-30T12:00:03.319Z,5.37
2019-01-30T12:02:32.058Z,9.83
2019-01-30T12:05:00.790Z,7.07
2019-01-30T12:07:29.534Z,6.17
2019-01-30T12:09:58.301Z,5.53
2019-01-30T12:12:27.053Z,6.17
2019-01-30T12:14:55.776Z,6.87
2019-01-30T12:17:24.564Z,6.20
2019-01-30T12:19:53.382Z,7.17
2019-01-30T12:22:22.094Z,7.13
2019-01-30T12:24:50.847Z,6.13
2019-01-30T12:27:19.645Z,5.47
2019-01-30T12:29:48.470Z,8.43
2019-01-30T12:32:17.192Z,8.80
2019-01-30T12:34:46.014Z,7.33
2019-01-30T12:37:14.955Z,4.60
2019-01-30T12:39:43.776Z,4.93
2019-01-30T12:42:12.498Z,3.47
2019-01-30T12:44:41.305Z,4.63
2019-01-30T12:47:19.521Z,3.50
2019-01-30T12:49:40.600Z,5.00
2019-01-30T12:52:09.332Z,9.77
2019-01-30T12:54:38.147Z,6.13
2019-01-30T12:57:06.875Z,6.03
2019-01-30T12:59:35.713Z,2.83
2019-01-30T13:02:05.011Z,3.80
2019-01-30T13:04:38.850Z,3.57
2019-01-30T13:07:04.321Z,4.90
2019-01-30T13:09:33.104Z,7.17
2019-01-30T13:12:01.893Z,3.27
2019-01-30T13:14:30.723Z,5.63
2019-01-30T13:16:59.543Z,7.50
2019-01-30T13:19:28.423Z,5.33
2019-01-30T13:21:57.203Z,8.30
2019-01-30T13:24:26.003Z,6.17
2019-01-30T13:26:54.713Z,9.03
2019-01-30T13:29:23.612Z,4.30
2019-01-30T13:31:52.487Z,1.73
2019-01-30T13:34:21.276Z,6.33
2019-01-30T13:36:50.109Z,6.03
2019-01-30T13:39:18.866Z,4.27
2019-01-30T13:41:47.813Z,14.70
2019-01-30T13:44:16.668Z,4.10
2019-01-30T13:46:45.409Z,3.67
2019-01-30T13:49:14.139Z,2.50
2019-01-30T13:51:44.091Z,5.00
2019-01-30T13:54:13.015Z,6.33
2019-01-30T13:56:42.056Z,2.43
2019-01-30T13:59:10.918Z,5.57
2019-01-30T14:01:43.107Z,3.37
2019-01-30T14:04:14.424Z,5.57
2019-01-30T14:06:43.272Z,4.20
2019-01-30T14:09:13.924Z,5.00
2019-01-30T14:11:42.770Z,5.00
2019-01-30T14:14:13.159Z,3.93
2019-01-30T14:16:42.203Z,1.87
2019-01-30T14:19:11.035Z,6.80
2019-01-30T14:21:39.925Z,3.10
2019-01-30T14:24:11.754Z,4.43
2019-01-30T14:26:40.540Z,5.23
2019-01-30T14:29:09.293Z,6.67
2019-01-30T14:31:38.121Z,3.03
2019-01-30T14:34:10.111Z,5.40
2019-01-30T14:36:38.883Z,4.33
2019-01-30T14:39:09.139Z,10.17
2019-01-30T14:41:38.249Z,2.77
2019-01-30T14:44:07.192Z,8.13
2019-01-30T14:46:38.427Z,3.20
2019-01-30T14:49:07.274Z,3.97
2019-01-30T14:51:36.070Z,2.93
2019-01-30T14:54:05.234Z,4.27
2019-01-30T14:56:34.019Z,7.93
2019-01-30T14:59:02.820Z,4.33
2019-01-30T15:01:31.646Z,5.00
2019-01-30T15:04:00.555Z,2.73
2019-01-30T15:06:29.462Z,1.50
2019-01-30T15:08:59.582Z,2.40
2019-01-30T15:11:28.427Z,3.20
2019-01-30T15:13:57.386Z,1.87
2019-01-30T15:16:26.183Z,3.57
2019-01-30T15:18:55.021Z,6.60
2019-01-30T15:21:26.902Z,5.03
2019-01-30T15:23:55.689Z,7.00
2019-01-30T15:26:24.537Z,5.17
2019-01-30T15:28:53.298Z,7.23
2019-01-30T15:31:22.248Z,3.03
2019-01-30T15:33:51.040Z,6.87
2019-01-30T15:36:19.778Z,4.07
2019-01-30T15:38:51.449Z,5.43
2019-01-30T15:41:20.274Z,6.03
2019-01-30T15:43:49.076Z,5.00
2019-01-30T15:46:17.927Z,2.87
2019-01-30T15:48:46.750Z,7.80
2019-01-30T15:51:16.768Z,6.60
2019-01-30T15:53:45.761Z,6.97
2019-01-30T15:56:14.533Z,3.90
2019-01-30T15:58:43.430Z,5.33
2019-01-30T16:01:14.338Z,6.53
2019-01-30T16:03:46.202Z,7.07
2019-01-30T16:06:15.022Z,4.97
2019-01-30T16:08:43.889Z,7.07
2019-01-30T16:11:12.813Z,3.53
2019-01-30T16:13:41.607Z,4.80
2019-01-30T16:16:10.513Z,7.60
2019-01-30T16:18:39.479Z,7.43
2019-01-30T16:21:08.323Z,6.30
2019-01-30T16:23:40.428Z,4.33
2019-01-30T16:26:09.489Z,4.13
2019-01-30T16:28:38.478Z,4.67
2019-01-30T16:31:07.363Z,2.47
2019-01-30T16:33:36.574Z,10.93
2019-01-30T16:36:05.353Z,4.13
2019-01-30T16:38:45.424Z,6.17
2019-01-30T16:41:19.010Z,6.87
2019-01-30T16:43:47.844Z,4.47
2019-01-30T16:46:16.641Z,8.20
2019-01-30T16:48:45.533Z,7.87
2019-01-30T16:51:16.477Z,4.60
2019-01-30T16:53:45.348Z,5.73
2019-01-30T16:56:14.220Z,7.30
2019-01-30T16:58:42.954Z,8.07
2019-01-30T17:01:11.874Z,6.90
2019-01-30T17:03:41.077Z,5.10
2019-01-30T17:06:09.906Z,8.00
2019-01-30T17:08:38.745Z,6.73
2019-01-30T17:11:07.541Z,9.33
2019-01-30T17:13:36.286Z,7.67
2019-01-30T17:16:05.072Z,4.93
2019-01-30T17:18:33.978Z,7.43
2019-01-30T17:21:02.778Z,7.20
2019-01-30T17:23:31.511Z,8.40
2019-01-30T17:26:00.268Z,8.40
2019-01-30T17:28:29.050Z,7.77
2019-01-30T17:30:59.977Z,7.47
2019-01-30T17:33:28.751Z,5.23
2019-01-30T17:35:57.485Z,10.43
2019-01-30T17:38:26.279Z,5.37
2019-01-30T17:40:55.185Z,5.37
2019-01-30T17:43:24.072Z,7.10
2019-01-30T17:45:52.912Z,7.37
2019-01-30T17:48:21.770Z,10.27
2019-01-30T17:50:50.638Z,9.23
2019-01-30T17:53:19.466Z,10.07
2019-01-30T17:55:50.361Z,11.80
2019-01-30T17:58:19.155Z,6.67
2019-01-30T18:00:54.611Z,8.13
2019-01-30T18:03:26.210Z,8.73
2019-01-30T18:05:55.040Z,7.67
2019-01-30T18:08:23.851Z,10.10
2019-01-30T18:10:52.589Z,8.63
2019-01-30T18:13:21.425Z,9.00
2019-01-30T18:15:50.228Z,11.03
2019-01-30T18:18:19.017Z,12.07
2019-01-30T18:20:47.866Z,11.20
2019-01-30T18:23:16.736Z,8.27
2019-01-30T18:25:45.526Z,11.63
2019-01-30T18:28:14.400Z,15.63
2019-01-30T18:30:43.277Z,13.07
2019-01-30T18:33:12.095Z,12.70
2019-01-30T18:35:40.842Z,10.37
2019-01-30T18:38:09.761Z,10.20
2019-01-30T18:40:38.502Z,9.70
2019-01-30T18:43:07.432Z,14.37
2019-01-30T18:45:36.286Z,10.40
2019-01-30T18:48:05.504Z,10.73
2019-01-30T18:50:34.276Z,13.67
2019-01-30T18:53:03.091Z,18.73
2019-01-30T18:55:31.912Z,13.67
2019-01-30T18:58:00.799Z,15.97
2019-01-30T19:00:31.036Z,13.63
2019-01-30T19:03:00.507Z,13.63
2019-01-30T19:05:29.693Z,12.63
2019-01-30T19:07:58.548Z,15.50
2019-01-30T19:10:27.371Z,23.60
2019-01-30T19:12:56.179Z,16.93
2019-01-30T19:15:25.494Z,15.30
2019-01-30T19:17:54.518Z,16.83
2019-01-30T19:20:24.495Z,12.00
2019-01-30T19:22:53.308Z,17.47
2019-01-30T19:25:22.149Z,16.63
2019-01-30T19:27:56.017Z,12.73
2019-01-30T19:30:28.311Z,21.97
2019-01-30T19:32:57.179Z,17.00
2019-01-30T19:35:25.961Z,16.50
2019-01-30T19:37:54.924Z,17.23
2019-01-30T19:40:23.811Z,19.93
2019-01-30T19:42:52.687Z,16.27
2019-01-30T19:45:22.301Z,20.03
2019-01-30T19:47:51.103Z,17.63
2019-01-30T19:50:20.817Z,18.63
2019-01-30T19:52:49.793Z,17.43
2019-01-30T19:55:18.786Z,17.33
2019-01-30T19:57:47.708Z,20.27
2019-01-30T20:00:23.024Z,19.97
2019-01-30T20:02:53.595Z,18.03
2019-01-30T20:05:26.035Z,19.20
2019-01-30T20:07:54.936Z,22.10
2019-01-30T20:10:28.213Z,24.27
2019-01-30T20:12:57.127Z,17.17
2019-01-30T20:15:26.132Z,26.23
2019-01-30T20:17:54.974Z,21.00
2019-01-30T20:20:23.813Z,16.07
2019-01-30T20:22:52.872Z,19.50
2019-01-30T20:25:22.998Z,21.53
2019-01-30T20:27:51.949Z,17.20
2019-01-30T20:30:21.463Z,21.07
2019-01-30T20:32:50.386Z,19.67
2019-01-30T20:35:19.156Z,19.37
2019-01-30T20:37:47.941Z,19.73
2019-01-30T20:40:18.052Z,17.00
2019-01-30T20:42:46.937Z,16.70
2019-01-30T20:45:16.362Z,16.53
2019-01-30T20:47:45.196Z,20.33
2019-01-30T20:50:18.258Z,17.03
2019-01-30T20:52:47.130Z,20.90
2019-01-30T20:55:16.906Z,17.67
2019-01-30T20:57:45.729Z,24.57
2019-01-30T21:00:18.718Z,21.13
2019-01-30T21:02:48.080Z,22.53
2019-01-30T21:05:17.006Z,23.37
2019-01-30T21:07:45.892Z,15.93
2019-01-30T21:10:16.150Z,18.93
2019-01-30T21:12:44.998Z,17.60
2019-01-30T21:15:14.243Z,19.70
2019-01-30T21:17:43.360Z,19.60
2019-01-30T21:20:12.291Z,12.53
2019-01-30T21:22:41.163Z,27.27
2019-01-30T21:25:11.569Z,18.53
2019-01-30T21:27:40.377Z,18.23
2019-01-30T21:30:10.027Z,18.57
2019-01-30T21:32:38.900Z,19.53
2019-01-30T21:35:07.846Z,17.50
2019-01-30T21:37:48.320Z,15.83
2019-01-30T21:40:08.265Z,18.53
2019-01-30T21:42:37.093Z,27.80
2019-01-30T21:45:06.423Z,22.40
2019-01-30T21:47:35.267Z,21.07
2019-01-30T21:50:04.571Z,21.83
2019-01-30T21:52:33.396Z,18.93
2019-01-30T21:55:02.160Z,18.10
2019-01-30T21:57:31.195Z,22.83
2019-01-30T22:00:00.045Z,18.77
2019-01-30T22:02:28.927Z,16.90
2019-01-30T22:04:57.669Z,16.17
2019-01-30T22:07:26.524Z,19.77
2019-01-30T22:09:55.279Z,16.77
2019-01-30T22:12:23.978Z,18.70
2019-01-30T22:14:52.732Z,18.57
2019-01-30T22:17:21.562Z,28.53
2019-01-30T22:19:50.396Z,22.30
2019-01-30T22:22:19.196Z,18.13
2019-01-30T22:24:47.940Z,16.67
2019-01-30T22:27:16.722Z,21.67
2019-01-30T22:29:45.490Z,25.37
2019-01-30T22:32:14.331Z,21.33
2019-01-30T22:34:43.078Z,15.70
2019-01-30T22:37:12.035Z,21.87
2019-01-30T22:39:40.896Z,24.33
2019-01-30T22:42:09.785Z,18.47
2019-01-30T22:44:38.609Z,17.77
2019-01-30T22:47:07.330Z,21.23
2019-01-30T22:49:36.515Z,15.43
2019-01-30T22:52:05.493Z,23.20
2019-01-30T22:54:34.262Z,18.87
2019-01-30T22:57:03.060Z,22.07
2019-01-30T22:59:31.973Z,17.13
2019-01-30T23:02:02.038Z,18.57
2019-01-30T23:04:37.251Z,20.17
2019-01-30T23:07:34.190Z,16.70
2019-01-30T23:10:22.144Z,20.70
2019-01-30T23:13:08.829Z,18.90
2019-01-30T23:15:43.714Z,19.20
2019-01-30T23:18:17.464Z,19.33
2019-01-30T23:20:53.523Z,17.73
2019-01-30T23:23:39.881Z,15.67
2019-01-30T23:26:27.791Z,21.00
2019-01-30T23:29:18.651Z,27.20
2019-01-30T23:32:09.626Z,24.63
2019-01-30T23:35:00.567Z,21.70
2019-01-30T23:37:37.616Z,18.73
2019-01-30T23:40:27.897Z,22.07
2019-01-30T23:43:18.736Z,15.50
2019-01-30T23:45:59.629Z,16.73
2019-01-30T23:48:59.730Z,19.07
2019-01-30T23:51:41.854Z,22.03
2019-01-30T23:54:28.658Z,17.43
2019-01-30T23:57:07.158Z,21.57
